الصفحة الرئيسية
METAR-TAF:

METAR-TAF

مطار :

بورت فيلا, Efate, فانواتو

دائرة عرض: 17-42S, خط طول: 168-18E, ارتفاع: 20 متر

مراقبة الطقس الحالي

تاريخ ووقت الإصدار 47 دقيقة قبل الساعة 07:00UTC
ريح 4 عقدة من الجنوب الشرقي
درجة الحرارة 26°درجة مئوية
الرطوبة 94%
ضغط 1010 hPa
الرؤية 10 كم أو أكثر
غيوم قليلة على ارتفاع 2000 قدم

METAR: NVVV 170700Z 13004KT 9999 FEW020 26/25 Q1010 RMK HZ

زمن: 18:47 (07:47 UTC)

توقعات

تاريخ ووقت الإصدار 3ساعات و 17 دقيقة قبل الساعة 04:30UTC
التوقعات صالحة من17 الساعة 06 UTC إلى 18 الساعة 06 UTC
ريح 5 عقدة من الجنوب/الجنوب الشرقي
الرؤية 10 كم أو أكثر
غيوم متفرقة على ارتفاع 2000 قدم

TAF: NVVV 170430Z 1706/1806 16005KT 9999 SCT020

أرصاد الطقس والتوقعات من أكثر من 4000 مطار (تقارير الطقس للمطار METAR والتنبؤ بالطقس بالمطارTAF).

المحطات المتاحة هي النقط الصفراء والحمراء على الخريطة.

حرك المؤشر فوق النقطة لمعرفة اسم المحطة.

ثم انقر لمعرفة أرصاد وتوقعات الطقس.

لتغيير الخارطة: اضغط على الأزرار الخضراء مع رمز الصليب الأسود للتكبير. على الزر الأخضر مع شرطة للتصغير، أو على الأسهم الخضراء للخرائط المجاورة.


METAR-TAF: